Milwaukee, Wisconsin
Traffic Map
Current Weather Conditions
Milwaukee, Wisconsin
Overcast Haze
Overcast
59°
Feels Like: 59°
Wind Chill: 59° Ceiling: 200
Heat Index: 59° Visibility: 0.5mi
Dew Point: 59° Wind: 9mph
Humidity: 100% Direction: 30° (NNE)
Pressure: 29.95in Gusts: 0mph
Raw Report DataKMKE 192210Z 03008KT 1/2SM BR OVC002 15/15 A2995 RMK AO2 SFC VIS 4 DZE06 P0000 T01500150
Traffic Incident Summary
Active as of:
Severity:
Category:
InformationThere was an issue retrieving the traffic information for this location. Please try a different location or try again shortly.
Advertisements